Air Resources Laboratory banner image
Air Resources Laboratory web site National Oceanic and Atmospheric Administration (NOAA)

ks metar


K3K3 202155Z AUTO 33005KT 10SM CLR 40/12 A2990 RMK AO2=
KAAO 202154Z AUTO 09017G29KT 10SM CLR 34/21 A2987 RMK AO2 PK WND 09029/2151
 SLP100 T03440211=
KCBK 202155Z AUTO 10016G20KT 10SM SCT048 SCT050 33/18 A2999 RMK AO2=
KCFV 202152Z AUTO 08009KT 10SM CLR 37/22 A2983 RMK AO2 SLP092 T03670222=
KCNK 202155Z AUTO 09008KT 10SM CLR 29/21 A2993 RMK AO2 SLP120 T02890206=
KCNU 202152Z AUTO 08011KT 10SM CLR 34/21 A2990 RMK AO2 SLP110 T03440211=
KDDC 202152Z AUTO 10014KT 10SM CLR 38/19 A2986 RMK AO2 SLP073 T03780194=
KEHA 202155Z AUTO 20011KT 10SM CLR 40/15 A2991 RMK AO2 T03950148=
KEMP 202153Z AUTO 00000KT 10SM TS FEW049 SCT090 BKN110 31/21 A2990 RMK AO2 LTG
 DSNT SE RAB36E52 TSB25 SLP114 P0000 T03060211=
KEWK 202156Z AUTO 09009G17KT 10SM CLR 32/22 A2992 RMK AO2 SLP112 T03170217=
KFOE 202153Z 02005KT 10SM CLR 28/21 A2992 RMK AO2 LTG DSNT W RAE19 SLP122 P0000
 T02830211=
KFRI 202156Z AUTO 05014KT 10SM CLR 31/20 A2990 RMK AO2 SLP114 T03080195=
KGBD 202156Z AUTO 09012G19KT 10SM CLR 36/23 A2990 RMK AO2 SLP101 T03560228=
KGCK 202154Z 06011KT 10SM CLR 38/17 A2987 RMK AO2 SLP073 TCU DSNT S MOV E
 T03830167=
KGLD 202153Z AUTO 08015G23KT 10SM CLR 35/21 A2999 RMK AO2 SLP101 T03500206=
KHLC 202153Z AUTO 08013G23KT 10SM CLR 34/23 A2995 RMK AO2 SLP114 T03390228 TSNO=
KHUT 202152Z 07017G23KT 10SM CLR 34/23 A2988 RMK AO2 RAE2059 SLP092 P0000
 T03440228=
KHYS 202156Z AUTO 09019G23KT 10SM CLR 33/23 A2991 RMK AO2 PK WND 09026/2144
 SLP107 T03330228=
KIAB 202156Z AUTO 14014KT 10SM CLR 36/22 A2987 RMK AO2 SLP101 T03590217=
KICT 202153Z 12012G24KT 10SM SCT090 SCT150 SCT220 37/23 A2986 RMK AO2 SLP093
 T03720228=
KIXD 202153Z 33010KT 10SM FEW048 FEW110 29/18 A2992 RMK AO2 SLP120 T02940183=
KLBL 202156Z AUTO 20017G23KT 10SM CLR 43/10 A2986 RMK AO2 PK WND 22026/2103
 SLP067 T04330100=
KLWC 202152Z AUTO 01004KT 10SM CLR 31/21 A2991 RMK AO2 SLP121 T03110211=
KMHK 202152Z 05011KT 10SM CLR 31/21 A2991 RMK AO2 LTG DSNT E SLP120 T03060206=
KOJC 202153Z 35007KT 10SM CLR 30/18 A2991 RMK AO2 SLP114 T03000178=
KP28 202156Z AUTO 09008KT 33/23 A2983 RMK AO1 SLP082 T03330228=
KPPF 202152Z AUTO VRB03KT 10SM CLR 34/22 A2989 RMK AO2 SLP111 T03440217=
KRSL 202153Z AUTO 09014G23KT 10SM CLR 33/23 A2991 RMK AO2 PK WND 08026/2054
 SLP107 T03280228=
KSLN 202153Z 07011KT 10SM CLR 34/20 A2991 RMK AO2 SLP113 T03390200=
KSYF 202155Z AUTO 09011KT 10SM CLR 34/19 A2998 RMK AO2 T03350186=
KTOP 202153Z 06003KT 10SM CLR 30/19 A2990 RMK AO2 RAE06 SLP117 P0000 T03000194=
KWLD 202154Z AUTO 10009KT 10SM CLR 35/24 A2987 RMK AO2 SLP098 T03500239=